Time;durP1;ratioP1;P1;durP2;ratioP2;P2;SDS_P1;SDS_P2;PMS_P1;PMS_P2;Temp;Humidity;BMP_temperature;BMP_pressure;BME280_temperature;BME280_humidity;BME280_pressure;Samples;Min_cycle;Max_cycle;Signal;HPM_P1;HPM_P2
2022/02/06 00:00:20;;;;;;;;;;;;;;;14.44;42.78;100502.13;4985169;27;99113;-64
2022/02/06 00:02:49;;;;;;;;;;;;;;;14.43;43.02;100489.69;4983449;28;98369;-63
2022/02/06 00:05:15;;;;;;;;;;;;;;;14.42;42.92;100489.97;4985127;27;97926;-57
2022/02/06 00:07:41;;;;;;;;;;;;;;;14.41;43.03;100485.66;4984325;28;99415;-56
2022/02/06 00:10:08;;;;;;;;;;;;;;;14.39;42.93;100482.44;4966918;28;97908;-56
2022/02/06 00:12:34;;;;;;;;;;;;;;;14.38;42.67;100489.78;4983297;27;98244;-63
2022/02/06 00:15:00;;;;;;;;;;;;;;;14.38;43.04;100475.38;4982342;28;97956;-57
2022/02/06 00:17:30;;;;;;;;;;;;;;;14.36;42.84;100475.69;4983315;28;107544;-56
2022/02/06 00:19:56;;;;;;;;;;;;;;;14.36;43.26;100469.44;4979318;27;98192;-57
2022/02/06 00:22:37;;;;;;;;;;;;;;;14.36;43.05;100472.97;5003072;27;98283;-57
2022/02/06 00:27:40;;;;;;;;;;;;;;;14.34;42.89;100464.31;5003839;27;98636;-63
2022/02/06 00:30:18;;;;;;;;;;;;;;;14.34;43.14;100460.78;4958063;28;98335;-57
2022/02/06 00:32:49;;;;;;;;;;;;;;;14.34;43.14;100455.38;4963443;28;98210;-56
2022/02/06 00:40:40;;;;;;;;;;;;;;;14.32;43.49;100430.47;4960467;28;98174;-56
2022/02/06 00:43:06;;;;;;;;;;;;;;;14.31;43.08;100431.56;4963075;28;97955;-56
2022/02/06 00:45:32;;;;;;;;;;;;;;;14.30;43.60;100430.75;4962922;28;107319;-56
2022/02/06 00:47:58;;;;;;;;;;;;;;;14.29;43.31;100423.72;4960682;28;129363;-56
2022/02/06 00:50:24;;;;;;;;;;;;;;;14.30;43.52;100410.97;4976864;28;99357;-57
2022/02/06 00:53:02;;;;;;;;;;;;;;;14.29;43.69;100415.59;4982118;28;99911;-56
2022/02/06 00:55:28;;;;;;;;;;;;;;;14.28;43.22;100416.69;4983832;27;97861;-64
2022/02/06 00:57:54;;;;;;;;;;;;;;;14.27;43.27;100415.09;4990212;27;128360;-64
2022/02/06 01:00:20;;;;;;;;;;;;;;;14.26;43.39;100402.59;4988554;27;127233;-56
2022/02/06 01:02:46;;;;;;;;;;;;;;;14.26;43.64;100397.19;4997316;27;98453;-63
2022/02/06 01:05:12;;;;;;;;;;;;;;;14.26;43.63;100399.91;4997834;27;111956;-57
2022/02/06 01:07:38;;;;;;;;;;;;;;;14.26;43.72;100399.91;5001600;27;124448;-56
2022/02/06 01:10:05;;;;;;;;;;;;;;;14.27;43.92;100389.88;4984314;27;127290;-63
2022/02/06 01:12:34;;;;;;;;;;;;;;;14.25;43.62;100388.25;5002540;27;97856;-64
2022/02/06 01:17:47;;;;;;;;;;;;;;;14.25;43.51;100387.44;4999722;27;97855;-63
2022/02/06 01:20:18;;;;;;;;;;;;;;;14.24;43.67;100353.31;4972045;28;98713;-64
2022/02/06 01:22:56;;;;;;;;;;;;;;;14.23;43.57;100368.78;4982636;27;98022;-56
2022/02/06 01:25:30;;;;;;;;;;;;;;;14.22;43.73;100350.06;4983052;27;97945;-56
2022/02/06 01:28:04;;;;;;;;;;;;;;;14.21;43.97;100345.75;4979729;28;98533;-56
2022/02/06 01:33:05;;;;;;;;;;;;;;;14.20;43.68;100336.03;4978604;28;98168;-63
2022/02/06 01:41:25;;;;;;;;;;;;;;;14.17;43.99;100317.63;4879353;28;98622;-56
2022/02/06 01:44:00;;;;;;;;;;;;;;;14.16;43.99;100313.31;4920127;28;98322;-56
2022/02/06 01:46:40;;;;;;;;;;;;;;;14.16;43.93;100319.53;4962796;28;97765;-56
2022/02/06 01:57:25;;;;;;;;;;;;;;;14.16;43.86;100307.91;4979966;28;99027;-63
2022/02/06 02:03:31;;;;;;;;;;;;;;;14.14;44.09;100288.41;4937825;28;98335;-56
2022/02/06 02:14:31;;;;;;;;;;;;;;;14.11;44.54;100270.00;4876711;28;98166;-63
2022/02/06 02:17:20;;;;;;;;;;;;;;;14.09;44.36;100256.75;4932880;28;97764;-56
2022/02/06 02:25:32;;;;;;;;;;;;;;;14.09;44.67;100239.69;4981493;28;98001;-64
2022/02/06 02:28:09;;;;;;;;;;;;;;;14.07;44.36;100226.47;4962766;28;98637;-63
2022/02/06 02:44:44;;;;;;;;;;;;;;;14.02;44.93;100193.19;4963793;28;98050;-64
2022/02/06 02:46:56;;;;;;;;;;;;;;;14.00;44.49;100188.09;4942870;28;98564;-56
2022/02/06 02:49:25;;;;;;;;;;;;;;;13.99;44.63;100203.56;4952947;28;98768;-63
2022/02/06 02:51:58;;;;;;;;;;;;;;;13.99;44.93;100197.34;4963349;28;98038;-56
2022/02/06 02:54:27;;;;;;;;;;;;;;;13.98;44.89;100185.66;4964987;28;98373;-64
2022/02/06 02:57:19;;;;;;;;;;;;;;;13.98;45.11;100187.56;4965415;28;98604;-56
2022/02/06 03:02:34;;;;;;;;;;;;;;;13.97;44.95;100164.28;4953701;28;98405;-63
2022/02/06 03:05:02;;;;;;;;;;;;;;;13.97;45.26;100153.44;4964579;28;99581;-64
2022/02/06 03:07:29;;;;;;;;;;;;;;;13.94;44.98;100144.00;4964043;28;99167;-63
2022/02/06 03:09:55;;;;;;;;;;;;;;;13.94;45.23;100127.75;4963973;28;99102;-56
2022/02/06 03:12:25;;;;;;;;;;;;;;;13.95;45.13;100139.38;4965345;28;97950;-57
2022/02/06 03:15:00;;;;;;;;;;;;;;;13.94;45.24;100129.66;4963825;28;98244;-62
2022/02/06 03:17:35;;;;;;;;;;;;;;;13.93;44.96;100112.59;4979668;28;98046;-57
2022/02/06 03:20:10;;;;;;;;;;;;;;;13.92;44.96;100108.28;4963658;28;97881;-63
2022/02/06 03:22:49;;;;;;;;;;;;;;;13.92;45.27;100086.63;4965302;28;97830;-64
2022/02/06 03:25:19;;;;;;;;;;;;;;;13.91;44.95;100120.25;4973968;28;97976;-62
2022/02/06 03:27:48;;;;;;;;;;;;;;;13.91;45.29;100100.44;4984356;28;97960;-56
2022/02/06 03:30:14;;;;;;;;;;;;;;;13.91;45.35;100084.19;4983400;28;113506;-64
2022/02/06 03:32:40;;;;;;;;;;;;;;;13.91;45.46;100087.72;4984650;28;97798;-56
2022/02/06 03:35:07;;;;;;;;;;;;;;;13.91;45.22;100076.88;4968950;28;127755;-63
2022/02/06 03:37:32;;;;;;;;;;;;;;;13.90;45.22;100075.25;4964064;28;117392;-64
2022/02/06 03:40:02;;;;;;;;;;;;;;;13.92;45.66;100074.97;4963480;28;117821;-64
2022/02/06 03:42:35;;;;;;;;;;;;;;;13.91;45.66;100065.22;4965042;28;97757;-63
2022/02/06 03:45:07;;;;;;;;;;;;;;;13.90;45.47;100061.72;4963338;28;98545;-57
2022/02/06 03:47:47;;;;;;;;;;;;;;;13.91;45.44;100038.13;4964621;28;98878;-64
2022/02/06 03:50:15;;;;;;;;;;;;;;;13.90;45.82;100036.53;4943347;28;98572;-56
2022/02/06 03:52:47;;;;;;;;;;;;;;;13.90;45.91;100031.09;4965800;28;98194;-63
2022/02/06 03:55:19;;;;;;;;;;;;;;;13.89;45.85;100029.50;4964723;28;99489;-56
2022/02/06 03:57:49;;;;;;;;;;;;;;;13.89;45.54;100018.66;4964795;28;98351;-56
2022/02/06 04:00:15;;;;;;;;;;;;;;;13.87;45.73;100013.56;4964172;28;98265;-64
2022/02/06 04:02:41;;;;;;;;;;;;;;;13.87;45.73;100018.97;4965314;28;97968;-64
2022/02/06 04:05:08;;;;;;;;;;;;;;;13.87;45.62;100010.84;4963280;28;98548;-57
2022/02/06 04:07:34;;;;;;;;;;;;;;;13.88;45.78;100014.38;4963234;28;117223;-56
2022/02/06 04:10:00;;;;;;;;;;;;;;;13.87;45.74;99997.31;4974691;28;127661;-56
2022/02/06 04:12:27;;;;;;;;;;;;;;;13.89;45.96;99991.59;4983220;28;97987;-64
2022/02/06 04:17:22;;;;;;;;;;;;;;;13.88;46.00;99993.50;4962949;28;115139;-56
2022/02/06 04:19:48;;;;;;;;;;;;;;;13.90;45.66;99993.19;4963402;28;98194;-56
2022/02/06 04:22:14;;;;;;;;;;;;;;;13.89;45.73;99989.66;4966811;28;112546;-63
2022/02/06 04:24:39;;;;;;;;;;;;;;;13.89;46.03;99981.53;4963491;28;104431;-63
2022/02/06 04:27:05;;;;;;;;;;;;;;;13.91;45.96;99981.22;4962941;28;123797;-56
2022/02/06 04:29:31;;;;;;;;;;;;;;;13.91;45.89;99973.94;4962798;28;110953;-57
2022/02/06 04:31:59;;;;;;;;;;;;;;;13.91;45.75;99960.38;4963491;28;98345;-57
2022/02/06 04:34:25;;;;;;;;;;;;;;;13.91;45.82;99973.94;4962433;28;99517;-56
2022/02/06 04:39:52;;;;;;;;;;;;;;;13.92;45.95;99945.72;4961630;28;97858;-64
2022/02/06 04:45:07;;;;;;;;;;;;;;;13.93;46.09;99941.91;5002356;27;98364;-56
2022/02/06 05:12:03;;;;;;;;;;;;;;;14.00;45.85;99909.78;4988144;27;97914;-56
2022/02/06 05:22:47;;;;;;;;;;;;;;;14.04;45.54;99909.19;4981859;28;115835;-56
2022/02/06 05:25:36;;;;;;;;;;;;;;;14.05;45.69;99891.81;4965757;28;98266;-64
2022/02/06 05:29:17;;;;;;;;;;;;;;;14.05;45.91;99891.81;4964621;28;98316;-64
2022/02/06 05:31:16;;;;;;;;;;;;;;;14.05;45.84;99900.75;4950977;28;98205;-56
2022/02/06 05:33:42;;;;;;;;;;;;;;;14.06;45.90;99888.78;4942484;28;98297;-57
2022/02/06 05:36:10;;;;;;;;;;;;;;;14.06;45.69;99891.50;4943502;28;98272;-56
2022/02/06 05:38:36;;;;;;;;;;;;;;;14.08;45.93;99885.78;4964465;28;98373;-57
2022/02/06 05:41:03;;;;;;;;;;;;;;;14.08;45.47;99878.47;4985868;28;105199;-64
2022/02/06 05:43:29;;;;;;;;;;;;;;;14.09;45.72;99865.72;4976789;27;109283;-64
2022/02/06 05:45:55;;;;;;;;;;;;;;;14.09;45.52;99874.63;4999322;27;97966;-56
2022/02/06 05:48:21;;;;;;;;;;;;;;;14.10;45.71;99865.41;4971004;27;128016;-56
2022/02/06 05:50:47;;;;;;;;;;;;;;;14.12;45.55;99867.81;4976145;27;128057;-64
2022/02/06 05:53:14;;;;;;;;;;;;;;;14.11;45.82;99861.59;4980491;27;127971;-57
2022/02/06 05:55:41;;;;;;;;;;;;;;;14.13;45.33;99853.97;4946914;28;106230;-61
2022/02/06 05:58:07;;;;;;;;;;;;;;;14.14;45.62;99852.03;4939880;28;121225;-56
2022/02/06 06:00:34;;;;;;;;;;;;;;;14.14;45.65;99850.13;4971318;28;128927;-57
2022/02/06 06:03:00;;;;;;;;;;;;;;;14.15;45.48;99848.25;4981711;28;98559;-57
2022/02/06 06:05:27;;;;;;;;;;;;;;;14.15;45.40;99840.13;4982456;27;97843;-63
2022/02/06 06:07:53;;;;;;;;;;;;;;;14.15;45.69;99845.53;4983670;27;99339;-56
2022/02/06 06:10:18;;;;;;;;;;;;;;;14.15;45.57;99838.22;4985480;27;127924;-57
2022/02/06 06:12:44;;;;;;;;;;;;;;;14.15;45.97;99837.41;5003747;27;126436;-56
2022/02/06 06:15:10;;;;;;;;;;;;;;;14.15;45.74;99830.06;5002159;27;97737;-56
2022/02/06 06:17:37;;;;;;;;;;;;;;;14.16;45.82;99830.88;5004287;27;101670;-55
2022/02/06 06:20:06;;;;;;;;;;;;;;;14.15;45.42;99832.00;4987442;27;99543;-56
2022/02/06 06:22:32;;;;;;;;;;;;;;;14.17;45.62;99818.91;5005909;27;98529;-56
2022/02/06 06:25:02;;;;;;;;;;;;;;;14.16;45.51;99812.69;5004851;27;98078;-57
2022/02/06 06:27:28;;;;;;;;;;;;;;;14.18;45.48;99820.50;5000864;27;98571;-56
2022/02/06 06:29:54;;;;;;;;;;;;;;;14.17;45.41;99808.88;4968337;28;98937;-56
2022/02/06 06:32:19;;;;;;;;;;;;;;;14.18;45.91;99807.75;4984761;27;126957;-55
2022/02/06 06:34:45;;;;;;;;;;;;;;;14.17;45.58;99814.28;4983727;28;112607;-56
2022/02/06 06:37:11;;;;;;;;;;;;;;;14.18;45.62;99821.31;4984350;28;98872;-57
2022/02/06 06:39:43;;;;;;;;;;;;;;;14.18;45.45;99813.19;4969939;27;108671;-57
2022/02/06 06:42:09;;;;;;;;;;;;;;;14.19;45.66;99801.25;5004739;27;97853;-57
2022/02/06 06:44:35;;;;;;;;;;;;;;;14.19;45.42;99803.16;5002845;27;98248;-56
2022/02/06 06:47:01;;;;;;;;;;;;;;;14.19;45.77;99798.53;5004374;27;98173;-56
2022/02/06 06:49:27;;;;;;;;;;;;;;;14.20;45.86;99794.72;4985657;27;98971;-56
2022/02/06 06:51:55;;;;;;;;;;;;;;;14.20;45.76;99792.00;5004108;27;98051;-56
2022/02/06 06:54:22;;;;;;;;;;;;;;;14.20;45.81;99786.59;5002711;27;97956;-56
2022/02/06 06:57:00;;;;;;;;;;;;;;;14.21;45.40;99790.09;5004578;27;99331;-59
2022/02/06 07:00:19;;;;;;;;;;;;;;;14.22;45.77;99791.69;4980260;27;98935;-64
2022/02/06 07:02:28;;;;;;;;;;;;;;;14.22;45.59;99788.97;4984648;27;98095;-57
2022/02/06 07:04:56;;;;;;;;;;;;;;;14.22;45.67;99789.78;4985992;28;97878;-57
2022/02/06 07:07:22;;;;;;;;;;;;;;;14.22;45.76;99786.25;4984486;27;98214;-56
2022/02/06 07:09:48;;;;;;;;;;;;;;;14.23;45.58;99779.75;4968166;27;111472;-56
2022/02/06 07:12:14;;;;;;;;;;;;;;;14.23;45.42;99761.56;4995724;27;127506;-64
2022/02/06 07:14:44;;;;;;;;;;;;;;;14.24;45.63;99776.72;5000371;27;113234;-64
2022/02/06 07:17:10;;;;;;;;;;;;;;;14.27;45.87;99779.94;5001470;27;98261;-56
2022/02/06 07:19:36;;;;;;;;;;;;;;;14.29;45.86;99772.28;4985136;27;112783;-64
2022/02/06 07:22:02;;;;;;;;;;;;;;;14.30;45.64;99771.16;4981392;28;98049;-56
2022/02/06 07:24:29;;;;;;;;;;;;;;;14.31;45.85;99780.94;4974307;27;98806;-56
2022/02/06 07:27:01;;;;;;;;;;;;;;;14.34;45.52;99774.88;4980026;28;98785;-56
2022/02/06 07:29:27;;;;;;;;;;;;;;;14.34;45.88;99767.53;4973456;28;98865;-56
2022/02/06 07:31:55;;;;;;;;;;;;;;;14.35;45.74;99771.06;4980521;28;99724;-56
2022/02/06 07:34:21;;;;;;;;;;;;;;;14.36;45.65;99765.31;4980501;28;97982;-56
2022/02/06 07:36:47;;;;;;;;;;;;;;;14.38;45.96;99752.28;4975904;27;101114;-64
2022/02/06 07:39:13;;;;;;;;;;;;;;;14.39;45.99;99753.88;4980614;27;98493;-63
2022/02/06 07:41:39;;;;;;;;;;;;;;;14.42;46.01;99755.13;4994075;27;120640;-56
2022/02/06 07:44:06;;;;;;;;;;;;;;;14.43;45.99;99738.59;4996566;27;98093;-56
2022/02/06 07:46:41;;;;;;;;;;;;;;;14.42;45.85;99731.56;4998046;27;99821;-56
2022/02/06 07:49:07;;;;;;;;;;;;;;;14.46;46.05;99731.72;4968491;27;98675;-64
2022/02/06 07:51:35;;;;;;;;;;;;;;;14.52;45.91;99735.94;5000291;27;98470;-56
2022/02/06 07:54:02;;;;;;;;;;;;;;;14.53;45.53;99732.09;5001040;27;98326;-56
2022/02/06 07:56:27;;;;;;;;;;;;;;;14.57;45.80;99724.94;5000130;27;108169;-63
2022/02/06 07:58:53;;;;;;;;;;;;;;;14.61;45.59;99722.41;4980250;27;98845;-56
2022/02/06 08:01:19;;;;;;;;;;;;;;;14.62;45.86;99715.88;4997998;27;127520;-56
2022/02/06 08:03:45;;;;;;;;;;;;;;;14.63;45.65;99712.06;4996909;27;114293;-61
2022/02/06 08:06:12;;;;;;;;;;;;;;;14.66;45.68;99719.59;4999815;27;127476;-56
2022/02/06 08:08:38;;;;;;;;;;;;;;;14.72;45.63;99696.63;4982807;27;98947;-57
2022/02/06 08:11:07;;;;;;;;;;;;;;;14.79;45.99;99693.47;4990025;27;98273;-64
2022/02/06 08:13:45;;;;;;;;;;;;;;;14.88;45.54;99705.94;4994442;27;98176;-64
2022/02/06 08:16:11;;;;;;;;;;;;;;;15.02;45.60;99686.06;4996198;27;98185;-56
2022/02/06 08:18:40;;;;;;;;;;;;;;;15.04;45.57;99675.66;4982259;27;128139;-63
2022/02/06 08:21:07;;;;;;;;;;;;;;;15.13;45.71;99671.88;4994535;27;98145;-56
2022/02/06 08:23:33;;;;;;;;;;;;;;;15.17;45.19;99677.47;4996777;27;97959;-56
2022/02/06 08:25:58;;;;;;;;;;;;;;;15.23;45.20;99684.31;4998826;27;98265;-56
2022/02/06 08:28:24;;;;;;;;;;;;;;;15.32;45.31;99676.19;4987654;27;109623;-56
2022/02/06 08:30:50;;;;;;;;;;;;;;;15.37;45.56;99676.84;4992613;27;125469;-56
2022/02/06 08:33:16;;;;;;;;;;;;;;;15.42;45.27;99662.31;4998981;27;97720;-56
2022/02/06 08:35:42;;;;;;;;;;;;;;;15.48;45.22;99650.16;4993967;27;98278;-57
2022/02/06 08:38:10;;;;;;;;;;;;;;;15.51;45.35;99637.88;4986322;27;127833;-56
2022/02/06 08:40:36;;;;;;;;;;;;;;;15.56;45.46;99649.38;4988860;27;98129;-56
2022/02/06 08:43:02;;;;;;;;;;;;;;;15.62;45.30;99647.28;4987624;27;113916;-56
2022/02/06 08:45:29;;;;;;;;;;;;;;;15.68;45.52;99638.69;4997682;27;127721;-56
2022/02/06 08:47:56;;;;;;;;;;;;;;;15.79;45.42;99650.03;4996077;27;98524;-56
2022/02/06 08:50:22;;;;;;;;;;;;;;;15.85;45.06;99627.00;4984268;27;98323;-56
2022/02/06 08:52:47;;;;;;;;;;;;;;;15.98;45.03;99630.66;4999105;27;97747;-56
2022/02/06 08:55:14;;;;;;;;;;;;;;;16.06;45.27;99629.03;4992214;27;120516;-56
2022/02/06 08:57:47;;;;;;;;;;;;;;;16.10;45.10;99635.41;4987486;27;98213;-56
2022/02/06 09:00:14;;;;;;;;;;;;;;;16.13;45.14;99637.50;4996551;27;98380;-56
2022/02/06 09:02:40;;;;;;;;;;;;;;;16.13;45.22;99638.28;4981137;27;98025;-56
2022/02/06 09:05:06;;;;;;;;;;;;;;;16.12;45.46;99627.75;4992865;27;98864;-56
2022/02/06 09:07:32;;;;;;;;;;;;;;;16.18;45.51;99627.22;4999913;27;98450;-56
2022/02/06 09:10:00;;;;;;;;;;;;;;;16.35;45.10;99639.19;4975032;27;107153;-56
2022/02/06 09:12:27;;;;;;;;;;;;;;;16.37;45.21;99621.41;4995984;27;97791;-56
2022/02/06 09:14:53;;;;;;;;;;;;;;;16.29;45.21;99608.66;4995933;27;99276;-56
2022/02/06 09:17:20;;;;;;;;;;;;;;;16.25;45.31;99632.19;4988914;27;122174;-56
2022/02/06 09:19:46;;;;;;;;;;;;;;;16.19;45.46;99611.72;4968870;27;98072;-56
2022/02/06 09:22:13;;;;;;;;;;;;;;;16.16;45.57;99620.53;4992356;27;98089;-56
2022/02/06 09:24:39;;;;;;;;;;;;;;;16.15;45.59;99608.88;4997497;27;99112;-56
2022/02/06 09:27:06;;;;;;;;;;;;;;;16.16;45.47;99610.47;4998082;27;97805;-56
2022/02/06 09:29:32;;;;;;;;;;;;;;;16.19;45.69;99607.09;4977659;27;98284;-56
2022/02/06 09:37:04;;;;;;;;;;;;;;;16.35;45.45;99609.28;4993068;27;112803;-57
2022/02/06 09:39:33;;;;;;;;;;;;;;;16.41;45.28;99587.00;4968162;27;98201;-56
2022/02/06 09:41:59;;;;;;;;;;;;;;;16.44;45.32;99589.06;4986727;27;98447;-56
2022/02/06 09:44:26;;;;;;;;;;;;;;;16.48;45.09;99602.81;4996630;27;99051;-56
2022/02/06 09:46:52;;;;;;;;;;;;;;;16.53;45.21;99591.75;4978980;27;120582;-56
2022/02/06 09:49:20;;;;;;;;;;;;;;;16.65;44.81;99578.25;4956609;27;98032;-56
2022/02/06 09:51:46;;;;;;;;;;;;;;;16.67;45.07;99573.28;4970402;27;97889;-56
2022/02/06 09:54:13;;;;;;;;;;;;;;;16.74;44.87;99574.69;4994289;27;126930;-56
2022/02/06 09:56:44;;;;;;;;;;;;;;;16.85;44.76;99568.53;4990101;27;99334;-56
2022/02/06 09:59:18;;;;;;;;;;;;;;;16.88;45.11;99577.97;4963430;27;98658;-56
2022/02/06 10:01:45;;;;;;;;;;;;;;;16.98;44.91;99553.09;4979484;27;98335;-56
2022/02/06 10:04:12;;;;;;;;;;;;;;;17.05;44.83;99558.00;4964391;27;99104;-56
2022/02/06 10:07:03;;;;;;;;;;;;;;;17.12;44.82;99555.53;4949503;28;99448;-56
2022/02/06 10:09:36;;;;;;;;;;;;;;;17.16;44.87;99548.31;4928459;28;99097;-56
2022/02/06 10:12:02;;;;;;;;;;;;;;;17.15;45.09;99541.28;4963215;28;98344;-56
2022/02/06 10:14:29;;;;;;;;;;;;;;;17.25;44.87;99538.16;4952634;28;99375;-56
2022/02/06 10:16:55;;;;;;;;;;;;;;;17.33;44.93;99518.22;4968910;28;98744;-57
2022/02/06 10:19:21;;;;;;;;;;;;;;;17.36;44.90;99533.84;4976196;27;98264;-56
2022/02/06 10:21:47;;;;;;;;;;;;;;;17.35;45.01;99521.38;4977545;28;98097;-56
2022/02/06 10:24:42;;;;;;;;;;;;;;;17.32;45.08;99515.81;4973155;28;98652;-56
2022/02/06 10:29:43;;;;;;;;;;;;;;;17.38;45.08;99509.03;4978402;27;98373;-56
2022/02/06 10:32:15;;;;;;;;;;;;;;;17.48;45.05;99505.06;4997858;27;98104;-56
2022/02/06 10:34:41;;;;;;;;;;;;;;;17.61;44.88;99499.34;4952942;28;98332;-56
2022/02/06 10:37:20;;;;;;;;;;;;;;;17.55;44.93;99497.94;4957645;28;98605;-56
2022/02/06 10:39:57;;;;;;;;;;;;;;;17.73;44.93;99467.78;4956128;28;98353;-56
2022/02/06 10:42:31;;;;;;;;;;;;;;;17.73;44.77;99471.31;4946887;28;97806;-57
2022/02/06 10:45:17;;;;;;;;;;;;;;;18.06;44.26;99467.72;4957084;28;112257;-56
2022/02/06 10:47:43;;;;;;;;;;;;;;;18.28;44.04;99463.75;4958571;28;98763;-56
2022/02/06 10:50:36;;;;;;;;;;;;;;;18.39;44.09;99449.28;4957516;28;98102;-56
2022/02/06 10:53:09;;;;;;;;;;;;;;;18.74;43.68;99450.69;4957867;28;97990;-56
2022/02/06 10:55:36;;;;;;;;;;;;;;;19.08;43.34;99433.72;4955678;28;98612;-56
2022/02/06 10:58:03;;;;;;;;;;;;;;;19.17;43.21;99438.25;4929690;28;98305;-56
2022/02/06 11:00:34;;;;;;;;;;;;;;;19.21;43.21;99426.25;4959166;28;98026;-56
2022/02/06 11:03:04;;;;;;;;;;;;;;;19.23;43.39;99415.00;4960505;28;98015;-56
2022/02/06 11:05:49;;;;;;;;;;;;;;;19.31;43.35;99406.63;4957782;28;98422;-56
2022/02/06 11:08:23;;;;;;;;;;;;;;;19.28;43.59;99409.28;4960856;28;100682;-56
2022/02/06 11:10:59;;;;;;;;;;;;;;;19.26;43.58;99404.16;4951768;28;98130;-56
2022/02/06 11:13:26;;;;;;;;;;;;;;;19.35;43.74;99406.72;4960525;28;98054;-55
2022/02/06 11:15:52;;;;;;;;;;;;;;;19.44;43.46;99393.69;4960287;28;98721;-54
2022/02/06 11:18:38;;;;;;;;;;;;;;;19.59;43.39;99378.44;4960033;28;97959;-56
2022/02/06 11:21:08;;;;;;;;;;;;;;;19.54;43.34;99384.19;4952041;28;98981;-56
2022/02/06 11:23:37;;;;;;;;;;;;;;;19.57;43.28;99376.06;4959600;28;97716;-56
2022/02/06 11:26:04;;;;;;;;;;;;;;;19.46;43.55;99377.75;4951016;28;98896;-56
2022/02/06 11:28:29;;;;;;;;;;;;;;;19.28;43.86;99379.22;4959634;28;113380;-56
2022/02/06 11:30:55;;;;;;;;;;;;;;;19.15;44.01;99373.06;4953169;28;107790;-55
2022/02/06 11:33:22;;;;;;;;;;;;;;;19.01;44.28;99359.81;4962145;28;97894;-56
2022/02/06 11:35:56;;;;;;;;;;;;;;;18.85;44.47;99361.72;4976239;28;98721;-57
2022/02/06 11:44:42;;;;;;;;;;;;;;;18.42;44.59;99346.06;4954272;28;98207;-55
2022/02/06 11:47:11;;;;;;;;;;;;;;;18.25;44.81;99328.06;4937622;28;98395;-63
2022/02/06 11:49:39;;;;;;;;;;;;;;;18.17;45.05;99334.44;4972488;28;98786;-55
2022/02/06 11:52:05;;;;;;;;;;;;;;;18.13;44.77;99334.34;4980607;28;97903;-63
2022/02/06 11:54:44;;;;;;;;;;;;;;;18.11;44.70;99333.88;4970609;28;98477;-63
2022/02/06 11:57:26;;;;;;;;;;;;;;;18.07;44.88;99330.25;4975997;28;99089;-63
2022/02/06 12:00:07;;;;;;;;;;;;;;;18.00;44.93;99321.84;4968776;28;98959;-55
2022/02/06 12:02:40;;;;;;;;;;;;;;;17.92;44.84;99323.59;4975540;28;98387;-55
2022/02/06 12:05:28;;;;;;;;;;;;;;;17.84;45.03;99332.66;4979824;28;107966;-56
2022/02/06 12:08:07;;;;;;;;;;;;;;;17.76;45.06;99318.03;4975276;28;98403;-63
2022/02/06 12:10:33;;;;;;;;;;;;;;;17.74;45.04;99314.84;4980189;27;99051;-55
2022/02/06 12:13:25;;;;;;;;;;;;;;;17.69;45.04;99303.38;4963176;28;98037;-63
2022/02/06 12:16:06;;;;;;;;;;;;;;;17.70;44.75;99297.59;4974275;28;98340;-63
2022/02/06 12:18:35;;;;;;;;;;;;;;;17.71;44.86;99287.47;4979867;28;98364;-56
2022/02/06 12:21:08;;;;;;;;;;;;;;;17.69;44.88;99276.13;4980475;28;98350;-56
2022/02/06 12:23:39;;;;;;;;;;;;;;;17.71;44.65;99257.50;4978598;28;97892;-64
2022/02/06 12:26:30;;;;;;;;;;;;;;;17.70;44.73;99253.97;4975022;28;98046;-56
2022/02/06 12:29:02;;;;;;;;;;;;;;;17.72;44.85;99254.41;4974764;28;98903;-63
2022/02/06 12:31:30;;;;;;;;;;;;;;;17.67;44.82;99239.09;4980245;28;99308;-63
2022/02/06 12:36:55;;;;;;;;;;;;;;;17.62;44.86;99228.44;4968396;28;99105;-63
2022/02/06 12:37:27;;;;;;;;;;;;;;;17.54;44.90;99232.09;4939014;28;98379;-63
2022/02/06 12:39:57;;;;;;;;;;;;;;;17.49;44.75;99215.19;4933601;28;98592;-63
2022/02/06 12:42:31;;;;;;;;;;;;;;;17.43;44.99;99222.81;4927840;28;99229;-63
2022/02/06 12:44:57;;;;;;;;;;;;;;;17.33;45.12;99224.09;4928183;28;98464;-63
2022/02/06 12:47:23;;;;;;;;;;;;;;;17.27;45.37;99205.59;4940983;28;98240;-56
2022/02/06 12:49:49;;;;;;;;;;;;;;;17.20;45.56;99195.25;4937491;28;117611;-56
2022/02/06 12:52:15;;;;;;;;;;;;;;;17.14;45.58;99202.09;4938825;28;126706;-63
2022/02/06 12:54:41;;;;;;;;;;;;;;;17.08;45.49;99187.09;4935522;28;126395;-63
2022/02/06 12:57:08;;;;;;;;;;;;;;;17.02;45.59;99183.03;4936753;28;108431;-55
2022/02/06 12:59:34;;;;;;;;;;;;;;;16.96;45.87;99174.28;4932691;28;99234;-63
2022/02/06 13:02:00;;;;;;;;;;;;;;;16.92;45.80;99181.53;4911581;28;119130;-63
2022/02/06 13:04:27;;;;;;;;;;;;;;;16.87;45.67;99168.19;4921171;28;97969;-56
2022/02/06 13:06:59;;;;;;;;;;;;;;;16.84;45.78;99163.41;4936320;28;98147;-56
2022/02/06 13:09:32;;;;;;;;;;;;;;;16.81;45.81;99164.88;4922501;28;98588;-57
2022/02/06 13:12:11;;;;;;;;;;;;;;;16.77;45.96;99152.28;4937856;28;97780;-63
2022/02/06 13:20:29;;;;;;;;;;;;;;;16.66;46.21;99122.81;4929249;28;98003;-62
2022/02/06 13:23:13;;;;;;;;;;;;;;;16.64;46.23;99113.38;4939766;28;98309;-60
2022/02/06 13:34:02;;;;;;;;;;;;;;;16.58;46.32;99065.78;4914808;28;98532;-63
2022/02/06 13:38:58;;;;;;;;;;;;;;;16.60;46.26;99049.91;4913988;28;111945;-63
2022/02/06 13:41:27;;;;;;;;;;;;;;;16.63;46.04;99050.03;4902824;28;98150;-55
2022/02/06 13:43:56;;;;;;;;;;;;;;;16.66;46.11;99035.75;4898306;28;98718;-63
2022/02/06 13:46:26;;;;;;;;;;;;;;;16.70;45.94;99027.66;4918884;28;98907;-56
2022/02/06 13:48:52;;;;;;;;;;;;;;;16.69;45.82;99017.94;4916395;28;99142;-63
2022/02/06 13:51:24;;;;;;;;;;;;;;;16.69;45.78;99010.56;4919963;28;98050;-63
2022/02/06 13:54:01;;;;;;;;;;;;;;;16.69;45.75;98996.97;4909118;28;98482;-56
2022/02/06 13:56:28;;;;;;;;;;;;;;;16.65;45.76;99001.50;4917602;28;99091;-55
2022/02/06 13:59:22;;;;;;;;;;;;;;;16.63;45.67;98992.91;4888896;28;99676;-63
2022/02/06 14:01:53;;;;;;;;;;;;;;;16.60;45.96;98974.53;4912246;28;98572;-63
2022/02/06 14:04:28;;;;;;;;;;;;;;;16.55;45.97;98957.69;4918022;28;98702;-63
2022/02/06 14:07:04;;;;;;;;;;;;;;;16.52;46.03;98953.72;4912275;28;98909;-63
2022/02/06 14:12:16;;;;;;;;;;;;;;;16.49;45.88;98927.19;4915798;28;97890;-57
2022/02/06 14:14:54;;;;;;;;;;;;;;;16.47;45.82;98915.09;4914481;28;99106;-56
2022/02/06 14:17:31;;;;;;;;;;;;;;;16.44;45.91;98894.81;4918992;28;98181;-63
2022/02/06 14:19:58;;;;;;;;;;;;;;;16.43;45.90;98901.38;4917844;28;119047;-63
2022/02/06 14:22:27;;;;;;;;;;;;;;;16.40;45.88;98896.63;4918662;28;98141;-63
2022/02/06 14:24:54;;;;;;;;;;;;;;;16.36;46.01;98879.41;4920712;28;98931;-56
2022/02/06 14:27:29;;;;;;;;;;;;;;;16.33;45.52;98880.09;4918307;28;101873;-55
2022/02/06 14:30:18;;;;;;;;;;;;;;;16.29;45.70;98860.16;4915674;28;97761;-63
2022/02/06 14:32:59;;;;;;;;;;;;;;;16.25;45.68;98867.44;4918035;28;98219;-56
2022/02/06 14:35:37;;;;;;;;;;;;;;;16.23;45.53;98873.22;4936480;28;98976;-63
2022/02/06 14:38:05;;;;;;;;;;;;;;;16.22;45.56;98854.53;4932239;28;99206;-56
2022/02/06 14:43:14;;;;;;;;;;;;;;;16.16;45.67;98857.47;4936969;28;98152;-56
2022/02/06 14:45:52;;;;;;;;;;;;;;;16.12;45.55;98853.09;4935530;28;99416;-56
2022/02/06 14:48:19;;;;;;;;;;;;;;;16.08;45.78;98836.66;4937815;28;99034;-63
2022/02/06 14:50:48;;;;;;;;;;;;;;;16.06;45.71;98844.34;4938966;28;98078;-63
2022/02/06 14:53:15;;;;;;;;;;;;;;;16.01;45.84;98825.56;4940269;28;97863;-57
2022/02/06 14:55:44;;;;;;;;;;;;;;;15.98;45.77;98811.88;4935979;28;111770;-61
2022/02/06 14:58:11;;;;;;;;;;;;;;;15.94;45.52;98809.06;4933534;28;98687;-56
2022/02/06 15:00:40;;;;;;;;;;;;;;;15.90;45.88;98808.94;4932922;28;122023;-56
2022/02/06 15:03:07;;;;;;;;;;;;;;;15.86;45.72;98799.91;4940346;28;98162;-63
2022/02/06 15:05:33;;;;;;;;;;;;;;;15.84;45.72;98790.53;4935978;28;98666;-63
2022/02/06 15:07:59;;;;;;;;;;;;;;;15.81;45.74;98780.34;4939567;28;98352;-56
2022/02/06 15:10:27;;;;;;;;;;;;;;;15.83;45.95;98769.91;4935063;28;128233;-56
2022/02/06 15:12:53;;;;;;;;;;;;;;;15.88;45.85;98762.31;4935822;28;98054;-56
2022/02/06 15:15:19;;;;;;;;;;;;;;;15.92;45.71;98757.78;4927927;28;100691;-63